KAID/AID METAR and TAF weather

Enter ICAO airport designator
Station Type Date Time Source
KAID METAR 2022/11/26 08:55 UTC NOAA

KAID 260855Z AUTO 00000KT 1 1/4SM BR VV007 M02/M03 A3019 RMK AO2 T10161029


Station Type Date Time Source
KAID Decoded METAR 2022/11/26 08:55 UTC NOAA

Anderson Municipal, IN, United States (KAID) 40-07N 085-37W
Nov 26, 2022 - 03:55 AM EST / 2022.11.26 0855 UTC
Wind: Calm:0
Visibility: 1 1/4 mile(s):0
Sky conditions: obscured
Weather: mist
Temperature: 29.1 F (-1.6 C)
Dew Point: 26.8 F (-2.9 C)
Relative Humidity: 90%
Pressure (altimeter): 30.19 in. Hg (1022 hPa)
ob: KAID 260855Z AUTO 00000KT 1 1/4SM BR VV007 M02/M03 A3019 RMK AO2 T10161029
cycle: 9

Station Type Date Time Source
KAID TAF UTC NOAA

Error!

Example: see airport list